sensor_id;sensor_type;location;lat;lon;timestamp;pressure;altitude;pressure_sealevel;temperature;humidity
40838;BME280;29632;49.168;9.848;2023-05-12T00:01:44;96521.38;;;17.52;50.73
40838;BME280;29632;49.168;9.848;2023-05-12T00:04:10;96512.84;;;17.50;50.91
40838;BME280;29632;49.168;9.848;2023-05-12T00:06:36;96517.31;;;17.50;50.86
40838;BME280;29632;49.168;9.848;2023-05-12T00:09:02;96515.50;;;17.50;50.73
40838;BME280;29632;49.168;9.848;2023-05-12T00:11:27;96513.88;;;17.49;50.95
40838;BME280;29632;49.168;9.848;2023-05-12T00:13:54;96500.72;;;17.49;50.71
40838;BME280;29632;49.168;9.848;2023-05-12T00:16:19;96499.69;;;17.50;50.81
40838;BME280;29632;49.168;9.848;2023-05-12T00:18:45;96497.69;;;17.52;50.93
40838;BME280;29632;49.168;9.848;2023-05-12T00:21:10;96491.41;;;17.53;50.90
40838;BME280;29632;49.168;9.848;2023-05-12T00:23:36;96493.84;;;17.55;50.76
40838;BME280;29632;49.168;9.848;2023-05-12T00:26:03;96492.03;;;17.55;50.66
40838;BME280;29632;49.168;9.848;2023-05-12T00:28:29;96492.03;;;17.55;50.75
40838;BME280;29632;49.168;9.848;2023-05-12T00:30:55;96498.94;;;17.57;50.76
40838;BME280;29632;49.168;9.848;2023-05-12T00:33:21;96493.84;;;17.55;50.78
40838;BME280;29632;49.168;9.848;2023-05-12T00:35:46;96494.03;;;17.53;50.58
40838;BME280;29632;49.168;9.848;2023-05-12T00:38:12;96495.03;;;17.52;50.65
40838;BME280;29632;49.168;9.848;2023-05-12T00:40:39;96493.44;;;17.51;50.66
40838;BME280;29632;49.168;9.848;2023-05-12T00:43:05;96496.69;;;17.53;50.71
40838;BME280;29632;49.168;9.848;2023-05-12T00:45:30;96496.50;;;17.55;50.47
40838;BME280;29632;49.168;9.848;2023-05-12T00:47:56;96493.66;;;17.57;50.55
40838;BME280;29632;49.168;9.848;2023-05-12T00:50:22;96495.28;;;17.58;50.51
40838;BME280;29632;49.168;9.848;2023-05-12T00:52:48;96488.22;;;17.58;50.47
40838;BME280;29632;49.168;9.848;2023-05-12T00:55:14;96495.28;;;17.58;50.45
40838;BME280;29632;49.168;9.848;2023-05-12T00:57:42;96489.59;;;17.54;50.60
40838;BME280;29632;49.168;9.848;2023-05-12T01:00:08;96493.25;;;17.53;50.45
40838;BME280;29632;49.168;9.848;2023-05-12T01:02:34;96488.78;;;17.53;50.74
40838;BME280;29632;49.168;9.848;2023-05-12T01:05:00;96482.72;;;17.53;50.58
40838;BME280;29632;49.168;9.848;2023-05-12T01:07:27;96483.72;;;17.52;50.60
40838;BME280;29632;49.168;9.848;2023-05-12T01:09:55;96486.53;;;17.50;50.52
40838;BME280;29632;49.168;9.848;2023-05-12T01:12:24;96485.72;;;17.50;50.72
40838;BME280;29632;49.168;9.848;2023-05-12T01:14:52;96479.66;;;17.49;50.63
40838;BME280;29632;49.168;9.848;2023-05-12T01:17:25;96488.34;;;17.50;50.57
40838;BME280;29632;49.168;9.848;2023-05-12T01:19:53;96483.09;;;17.50;50.69
40838;BME280;29632;49.168;9.848;2023-05-12T01:22:20;96488.97;;;17.52;50.51
40838;BME280;29632;49.168;9.848;2023-05-12T01:25:02;96482.91;;;17.51;50.70
40838;BME280;29632;49.168;9.848;2023-05-12T01:27:28;96483.50;;;17.53;50.54
40838;BME280;29632;49.168;9.848;2023-05-12T01:29:57;96480.09;;;17.53;50.51
40838;BME280;29632;49.168;9.848;2023-05-12T01:32:24;96485.16;;;17.54;50.48
40838;BME280;29632;49.168;9.848;2023-05-12T01:34:50;96486.75;;;17.55;50.58
40838;BME280;29632;49.168;9.848;2023-05-12T01:37:16;96486.56;;;17.57;50.57
40838;BME280;29632;49.168;9.848;2023-05-12T01:39:42;96495.47;;;17.56;50.59
40838;BME280;29632;49.168;9.848;2023-05-12T01:42:08;96485.75;;;17.57;50.63
40838;BME280;29632;49.168;9.848;2023-05-12T01:44:33;96495.47;;;17.56;50.44
40838;BME280;29632;49.168;9.848;2023-05-12T01:46:59;96491.03;;;17.57;50.57
40838;BME280;29632;49.168;9.848;2023-05-12T01:49:26;96492.03;;;17.55;50.45
40838;BME280;29632;49.168;9.848;2023-05-12T01:51:51;96500.72;;;17.56;50.46
40838;BME280;29632;49.168;9.848;2023-05-12T01:54:17;96496.91;;;17.59;50.54
40838;BME280;29632;49.168;9.848;2023-05-12T01:56:43;96490.66;;;17.60;50.53
40838;BME280;29632;49.168;9.848;2023-05-12T01:59:08;96494.09;;;17.60;50.46
40838;BME280;29632;49.168;9.848;2023-05-12T02:01:34;96493.91;;;17.62;50.38
40838;BME280;29632;49.168;9.848;2023-05-12T02:03:59;96490.66;;;17.60;50.39
40838;BME280;29632;49.168;9.848;2023-05-12T02:06:25;96495.91;;;17.60;50.70
40838;BME280;29632;49.168;9.848;2023-05-12T02:08:51;96493.28;;;17.60;50.51
40838;BME280;29632;49.168;9.848;2023-05-12T02:11:17;96496.72;;;17.60;50.63
40838;BME280;29632;49.168;9.848;2023-05-12T02:13:42;96488.81;;;17.60;50.54
40838;BME280;29632;49.168;9.848;2023-05-12T02:16:09;96494.88;;;17.61;50.51
40838;BME280;29632;49.168;9.848;2023-05-12T02:18:35;96488.81;;;17.60;50.46
40838;BME280;29632;49.168;9.848;2023-05-12T02:21:01;96501.97;;;17.60;50.35
40838;BME280;29632;49.168;9.848;2023-05-12T02:23:26;96495.09;;;17.59;50.54
40838;BME280;29632;49.168;9.848;2023-05-12T02:25:52;96493.47;;;17.58;50.61
40838;BME280;29632;49.168;9.848;2023-05-12T02:28:18;96489.81;;;17.59;50.44
40838;BME280;29632;49.168;9.848;2023-05-12T02:30:44;96486.56;;;17.57;50.51
40838;BME280;29632;49.168;9.848;2023-05-12T02:33:11;96486.75;;;17.55;50.65
40838;BME280;29632;49.168;9.848;2023-05-12T02:35:37;96483.31;;;17.55;50.52
40838;BME280;29632;49.168;9.848;2023-05-12T02:38:02;96480.88;;;17.53;50.63
40838;BME280;29632;49.168;9.848;2023-05-12T02:40:29;96482.72;;;17.53;50.71
40838;BME280;29632;49.168;9.848;2023-05-12T02:42:55;96480.88;;;17.53;50.46
40838;BME280;29632;49.168;9.848;2023-05-12T02:45:21;96473.00;;;17.53;50.57
40838;BME280;29632;49.168;9.848;2023-05-12T02:47:46;96473.00;;;17.53;50.52
40838;BME280;29632;49.168;9.848;2023-05-12T02:50:13;96471.16;;;17.54;50.42
40838;BME280;29632;49.168;9.848;2023-05-12T02:52:39;96469.75;;;17.51;50.27
40838;BME280;29632;49.168;9.848;2023-05-12T02:55:05;96468.72;;;17.52;50.40
40838;BME280;29632;49.168;9.848;2023-05-12T02:57:30;96465.47;;;17.50;50.31
40838;BME280;29632;49.168;9.848;2023-05-12T02:59:59;96478.03;;;17.48;50.43
40838;BME280;29632;49.168;9.848;2023-05-12T03:02:24;96470.31;;;17.47;50.39
40838;BME280;29632;49.168;9.848;2023-05-12T03:04:50;96469.69;;;17.45;50.59
40838;BME280;29632;49.168;9.848;2023-05-12T03:07:16;96468.91;;;17.44;50.39
40838;BME280;29632;49.168;9.848;2023-05-12T03:09:41;96467.25;;;17.43;50.41
40838;BME280;29632;49.168;9.848;2023-05-12T03:12:07;96470.09;;;17.42;50.42
40838;BME280;29632;49.168;9.848;2023-05-12T03:14:33;96471.09;;;17.41;50.46
40838;BME280;29632;49.168;9.848;2023-05-12T03:16:58;96474.94;;;17.38;50.58
40838;BME280;29632;49.168;9.848;2023-05-12T03:19:24;96474.31;;;17.36;50.53
40838;BME280;29632;49.168;9.848;2023-05-12T03:21:50;96475.31;;;17.35;50.53
40838;BME280;29632;49.168;9.848;2023-05-12T03:24:15;96474.50;;;17.34;50.65
40838;BME280;29632;49.168;9.848;2023-05-12T03:26:41;96471.06;;;17.34;50.63
40838;BME280;29632;49.168;9.848;2023-05-12T03:29:07;96473.69;;;17.34;50.54
40838;BME280;29632;49.168;9.848;2023-05-12T03:31:33;96476.53;;;17.32;50.71
40838;BME280;29632;49.168;9.848;2023-05-12T03:33:58;96473.47;;;17.29;50.54
40838;BME280;29632;49.168;9.848;2023-05-12T03:36:24;96471.81;;;17.28;50.76
40838;BME280;29632;49.168;9.848;2023-05-12T03:38:49;96468.38;;;17.27;50.82
40838;BME280;29632;49.168;9.848;2023-05-12T03:41:15;96469.84;;;17.30;50.69
40838;BME280;29632;49.168;9.848;2023-05-12T03:43:41;96473.88;;;17.32;50.66
40838;BME280;29632;49.168;9.848;2023-05-12T03:46:07;96467.00;;;17.31;50.62
40838;BME280;29632;49.168;9.848;2023-05-12T03:48:32;96473.88;;;17.32;50.71
40838;BME280;29632;49.168;9.848;2023-05-12T03:50:58;96468.44;;;17.34;50.79
40838;BME280;29632;49.168;9.848;2023-05-12T03:53:24;96476.13;;;17.35;50.59
40838;BME280;29632;49.168;9.848;2023-05-12T03:55:49;96468.84;;;17.38;50.55
40838;BME280;29632;49.168;9.848;2023-05-12T03:58:15;96467.88;;;17.39;50.52
40838;BME280;29632;49.168;9.848;2023-05-12T04:00:41;96475.53;;;17.40;50.56
40838;BME280;29632;49.168;9.848;2023-05-12T04:03:07;96468.28;;;17.42;50.39
40838;BME280;29632;49.168;9.848;2023-05-12T04:05:32;96475.97;;;17.44;50.29
40838;BME280;29632;49.168;9.848;2023-05-12T04:07:58;96468.06;;;17.44;50.44
40838;BME280;29632;49.168;9.848;2023-05-12T04:10:23;96472.34;;;17.45;50.50
40838;BME280;29632;49.168;9.848;2023-05-12T04:12:49;96470.50;;;17.45;50.48
40838;BME280;29632;49.168;9.848;2023-05-12T04:15:16;96469.50;;;17.46;50.39
40838;BME280;29632;49.168;9.848;2023-05-12T04:17:42;96476.41;;;17.47;50.45
40838;BME280;29632;49.168;9.848;2023-05-12T04:20:08;96473.97;;;17.46;50.41
40838;BME280;29632;49.168;9.848;2023-05-12T04:22:34;96474.97;;;17.45;50.46
40838;BME280;29632;49.168;9.848;2023-05-12T04:25:00;96473.13;;;17.45;50.43
40838;BME280;29632;49.168;9.848;2023-05-12T04:27:25;96476.41;;;17.47;50.42
40838;BME280;29632;49.168;9.848;2023-05-12T04:29:51;96485.91;;;17.48;50.62
40838;BME280;29632;49.168;9.848;2023-05-12T04:32:16;96481.47;;;17.49;50.42
40838;BME280;29632;49.168;9.848;2023-05-12T04:34:42;96484.09;;;17.49;50.72
40838;BME280;29632;49.168;9.848;2023-05-12T04:37:08;96482.47;;;17.48;50.64
40838;BME280;29632;49.168;9.848;2023-05-12T04:39:34;96488.34;;;17.50;50.59
40838;BME280;29632;49.168;9.848;2023-05-12T04:42:00;96487.38;;;17.51;50.36
40838;BME280;29632;49.168;9.848;2023-05-12T04:44:26;96488.97;;;17.52;50.50
40838;BME280;29632;49.168;9.848;2023-05-12T04:46:52;96490.63;;;17.53;50.46
40838;BME280;29632;49.168;9.848;2023-05-12T04:49:21;96493.25;;;17.53;50.55
40838;BME280;29632;49.168;9.848;2023-05-12T04:51:47;96496.50;;;17.55;50.70
40838;BME280;29632;49.168;9.848;2023-05-12T04:54:12;96499.13;;;17.55;50.64
40838;BME280;29632;49.168;9.848;2023-05-12T04:56:38;96499.75;;;17.57;50.68
40838;BME280;29632;49.168;9.848;2023-05-12T04:59:04;96497.91;;;17.58;50.48
40838;BME280;29632;49.168;9.848;2023-05-12T05:01:30;96500.34;;;17.59;50.38
40838;BME280;29632;49.168;9.848;2023-05-12T05:03:56;96503.59;;;17.61;50.69
40838;BME280;29632;49.168;9.848;2023-05-12T05:06:22;96507.88;;;17.62;50.63
40838;BME280;29632;49.168;9.848;2023-05-12T05:08:47;96512.31;;;17.62;50.60
40838;BME280;29632;49.168;9.848;2023-05-12T05:11:13;96517.41;;;17.63;50.64
40838;BME280;29632;49.168;9.848;2023-05-12T05:13:39;96507.69;;;17.64;50.62
40838;BME280;29632;49.168;9.848;2023-05-12T05:16:05;96512.94;;;17.64;50.53
40838;BME280;29632;49.168;9.848;2023-05-12T05:18:31;96511.09;;;17.64;50.67
40838;BME280;29632;49.168;9.848;2023-05-12T05:20:56;96510.91;;;17.66;50.72
40838;BME280;29632;49.168;9.848;2023-05-12T05:23:22;96522.25;;;17.66;50.43
40838;BME280;29632;49.168;9.848;2023-05-12T05:25:48;96518.81;;;17.66;50.55
40838;BME280;29632;49.168;9.848;2023-05-12T05:28:13;96514.34;;;17.66;50.53
40838;BME280;29632;49.168;9.848;2023-05-12T05:30:39;96528.34;;;17.67;50.51
40838;BME280;29632;49.168;9.848;2023-05-12T05:33:05;96518.63;;;17.67;50.50
40838;BME280;29632;49.168;9.848;2023-05-12T05:35:30;96529.97;;;17.68;50.52
40838;BME280;29632;49.168;9.848;2023-05-12T05:37:56;96529.16;;;17.67;50.66
40838;BME280;29632;49.168;9.848;2023-05-12T05:40:21;96522.06;;;17.68;50.62
40838;BME280;29632;49.168;9.848;2023-05-12T05:42:47;96524.69;;;17.68;50.58
40838;BME280;29632;49.168;9.848;2023-05-12T05:45:13;96525.53;;;17.68;50.65
40838;BME280;29632;49.168;9.848;2023-05-12T05:47:39;96525.53;;;17.68;50.57
40838;BME280;29632;49.168;9.848;2023-05-12T05:50:05;96529.78;;;17.69;50.46
40838;BME280;29632;49.168;9.848;2023-05-12T05:52:31;96533.03;;;17.71;50.54
40838;BME280;29632;49.168;9.848;2023-05-12T05:54:57;96530.56;;;17.70;50.47
40838;BME280;29632;49.168;9.848;2023-05-12T05:57:22;96523.50;;;17.70;50.55
40838;BME280;29632;49.168;9.848;2023-05-12T05:59:48;96533.22;;;17.70;50.49
40838;BME280;29632;49.168;9.848;2023-05-12T06:02:14;96529.78;;;17.69;50.49
40838;BME280;29632;49.168;9.848;2023-05-12T06:04:39;96533.22;;;17.70;50.48
40838;BME280;29632;49.168;9.848;2023-05-12T06:07:05;96532.41;;;17.69;50.41
40838;BME280;29632;49.168;9.848;2023-05-12T06:09:31;96542.75;;;17.71;50.57
40838;BME280;29632;49.168;9.848;2023-05-12T06:11:56;96540.50;;;17.68;50.64
40838;BME280;29632;49.168;9.848;2023-05-12T06:14:22;96538.25;;;17.65;50.55
40838;BME280;29632;49.168;9.848;2023-05-12T06:16:48;96533.59;;;17.60;50.58
40838;BME280;29632;49.168;9.848;2023-05-12T06:19:13;96540.69;;;17.60;50.57
40838;BME280;29632;49.168;9.848;2023-05-12T06:21:40;96539.66;;;17.61;50.64
40838;BME280;29632;49.168;9.848;2023-05-12T06:24:05;96539.47;;;17.62;50.55
40838;BME280;29632;49.168;9.848;2023-05-12T06:26:31;96542.72;;;17.64;50.70
40838;BME280;29632;49.168;9.848;2023-05-12T06:28:57;96545.97;;;17.66;50.66
40838;BME280;29632;49.168;9.848;2023-05-12T06:31:22;96544.16;;;17.67;50.59
40838;BME280;29632;49.168;9.848;2023-05-12T06:33:48;96551.03;;;17.68;50.47
40838;BME280;29632;49.168;9.848;2023-05-12T06:36:14;96548.22;;;17.69;50.43
40838;BME280;29632;49.168;9.848;2023-05-12T06:38:39;96551.66;;;17.70;50.39
40838;BME280;29632;49.168;9.848;2023-05-12T06:41:05;96555.13;;;17.70;50.59
40838;BME280;29632;49.168;9.848;2023-05-12T06:43:31;96552.28;;;17.72;50.57
40838;BME280;29632;49.168;9.848;2023-05-12T06:45:56;96548.63;;;17.73;50.47
40838;BME280;29632;49.168;9.848;2023-05-12T06:48:22;96550.28;;;17.74;50.45
40838;BME280;29632;49.168;9.848;2023-05-12T06:50:48;96552.06;;;17.73;50.66
40838;BME280;29632;49.168;9.848;2023-05-12T06:53:14;96552.91;;;17.74;50.52
40838;BME280;29632;49.168;9.848;2023-05-12T06:55:39;96547.44;;;17.76;50.57
40838;BME280;29632;49.168;9.848;2023-05-12T06:58:07;96553.53;;;17.76;50.55
40838;BME280;29632;49.168;9.848;2023-05-12T07:00:33;96555.97;;;17.78;50.58
40838;BME280;29632;49.168;9.848;2023-05-12T07:02:59;96546.84;;;17.80;50.40
40838;BME280;29632;49.168;9.848;2023-05-12T07:05:24;96550.31;;;17.81;50.46
40838;BME280;29632;49.168;9.848;2023-05-12T07:07:50;96549.09;;;17.83;50.54
40838;BME280;29632;49.168;9.848;2023-05-12T07:10:16;96552.72;;;17.82;50.43
40838;BME280;29632;49.168;9.848;2023-05-12T07:12:42;96554.38;;;17.83;50.48
40838;BME280;29632;49.168;9.848;2023-05-12T07:15:08;96550.72;;;17.84;50.53
40838;BME280;29632;49.168;9.848;2023-05-12T07:17:34;96553.19;;;17.86;50.29
40838;BME280;29632;49.168;9.848;2023-05-12T07:19:59;96554.00;;;17.86;50.51
40838;BME280;29632;49.168;9.848;2023-05-12T07:22:25;96549.34;;;17.88;50.68
40838;BME280;29632;49.168;9.848;2023-05-12T07:24:51;96551.41;;;17.93;50.33
40838;BME280;29632;49.168;9.848;2023-05-12T07:27:17;96546.56;;;17.97;50.25
40838;BME280;29632;49.168;9.848;2023-05-12T07:29:42;96550.81;;;17.98;50.36
40838;BME280;29632;49.168;9.848;2023-05-12T07:32:08;96554.28;;;17.98;50.43
40838;BME280;29632;49.168;9.848;2023-05-12T07:34:33;96553.44;;;17.98;50.64
40838;BME280;29632;49.168;9.848;2023-05-12T07:36:59;96554.88;;;18.00;50.40
40838;BME280;29632;49.168;9.848;2023-05-12T07:39:28;96553.84;;;18.01;50.57
40838;BME280;29632;49.168;9.848;2023-05-12T07:41:57;96551.63;;;18.05;50.61
40838;BME280;29632;49.168;9.848;2023-05-12T07:44:23;96550.03;;;18.04;50.63
40838;BME280;29632;49.168;9.848;2023-05-12T07:46:48;96548.41;;;18.03;50.50
40838;BME280;29632;49.168;9.848;2023-05-12T07:49:14;96546.78;;;18.02;50.61
40838;BME280;29632;49.168;9.848;2023-05-12T07:51:40;96552.06;;;18.02;50.61
40838;BME280;29632;49.168;9.848;2023-05-12T07:54:05;96554.50;;;18.03;50.75
40838;BME280;29632;49.168;9.848;2023-05-12T07:56:31;96554.50;;;18.03;50.71
40838;BME280;29632;49.168;9.848;2023-05-12T07:58:57;96556.91;;;18.05;50.55
40838;BME280;29632;49.168;9.848;2023-05-12T08:01:23;96550.66;;;18.06;50.76
40838;BME280;29632;49.168;9.848;2023-05-12T08:03:49;96559.78;;;18.03;50.67
40838;BME280;29632;49.168;9.848;2023-05-12T08:06:17;96561.56;;;18.03;50.50
40838;BME280;29632;49.168;9.848;2023-05-12T08:08:43;96558.13;;;18.02;50.74
40838;BME280;29632;49.168;9.848;2023-05-12T08:11:09;96558.13;;;18.02;50.58
40838;BME280;29632;49.168;9.848;2023-05-12T08:13:38;96555.69;;;18.01;50.64
40838;BME280;29632;49.168;9.848;2023-05-12T08:16:04;96557.91;;;17.97;50.79
40838;BME280;29632;49.168;9.848;2023-05-12T08:18:29;96562.38;;;17.97;50.75
40838;BME280;29632;49.168;9.848;2023-05-12T08:20:55;96559.72;;;17.97;50.71
40838;BME280;29632;49.168;9.848;2023-05-12T08:23:21;96561.53;;;17.96;50.83
40838;BME280;29632;49.168;9.848;2023-05-12T08:25:46;96560.91;;;17.94;50.78
40838;BME280;29632;49.168;9.848;2023-05-12T08:28:13;96557.09;;;17.97;50.84
40838;BME280;29632;49.168;9.848;2023-05-12T08:30:40;96561.75;;;18.01;50.75
40838;BME280;29632;49.168;9.848;2023-05-12T08:33:05;96563.63;;;18.07;50.75
40838;BME280;29632;49.168;9.848;2023-05-12T08:35:31;96570.72;;;18.14;50.54
40838;BME280;29632;49.168;9.848;2023-05-12T08:37:57;96560.59;;;18.17;50.65
40838;BME280;29632;49.168;9.848;2023-05-12T08:40:24;96571.78;;;18.19;50.29
40838;BME280;29632;49.168;9.848;2023-05-12T08:43:12;96559.41;;;18.20;50.63
40838;BME280;29632;49.168;9.848;2023-05-12T08:45:42;96570.38;;;18.23;50.48
40838;BME280;29632;49.168;9.848;2023-05-12T08:48:09;96564.91;;;18.25;50.52
40838;BME280;29632;49.168;9.848;2023-05-12T08:50:35;96560.84;;;18.29;50.55
40838;BME280;29632;49.168;9.848;2023-05-12T08:53:06;96563.91;;;18.33;50.64
40838;BME280;29632;49.168;9.848;2023-05-12T08:55:35;96566.75;;;18.38;50.60
40838;BME280;29632;49.168;9.848;2023-05-12T08:58:01;96566.19;;;18.42;50.87
40838;BME280;29632;49.168;9.848;2023-05-12T09:00:27;96559.09;;;18.49;50.32
40838;BME280;29632;49.168;9.848;2023-05-12T09:02:53;96568.03;;;18.55;50.48
40838;BME280;29632;49.168;9.848;2023-05-12T09:05:20;96574.53;;;18.66;50.12
40838;BME280;29632;49.168;9.848;2023-05-12T09:07:46;96572.13;;;18.71;50.31
40838;BME280;29632;49.168;9.848;2023-05-12T09:10:15;96563.63;;;18.76;50.36
40838;BME280;29632;49.168;9.848;2023-05-12T09:12:41;96563.22;;;18.79;50.15
40838;BME280;29632;49.168;9.848;2023-05-12T09:15:12;96567.66;;;18.78;50.17
40838;BME280;29632;49.168;9.848;2023-05-12T09:17:39;96563.47;;;18.84;50.24
40838;BME280;29632;49.168;9.848;2023-05-12T09:20:05;96564.88;;;18.86;50.19
40838;BME280;29632;49.168;9.848;2023-05-12T09:22:32;96574.84;;;18.91;50.05
40838;BME280;29632;49.168;9.848;2023-05-12T09:25:13;96578.28;;;18.92;50.16
40838;BME280;29632;49.168;9.848;2023-05-12T09:27:39;96581.72;;;18.85;50.46
40838;BME280;29632;49.168;9.848;2023-05-12T09:30:05;96579.28;;;18.84;50.58
40838;BME280;29632;49.168;9.848;2023-05-12T09:32:33;96584.94;;;18.81;50.71
40838;BME280;29632;49.168;9.848;2023-05-12T09:35:08;96591.88;;;18.82;50.26
40838;BME280;29632;49.168;9.848;2023-05-12T09:37:36;96594.28;;;18.83;50.35
40838;BME280;29632;49.168;9.848;2023-05-12T09:40:06;96587.19;;;18.84;50.38
40838;BME280;29632;49.168;9.848;2023-05-12T09:42:33;96585.97;;;18.86;50.46
40838;BME280;29632;49.168;9.848;2023-05-12T09:45:03;96577.66;;;18.90;50.52
40838;BME280;29632;49.168;9.848;2023-05-12T09:47:33;96586.78;;;18.94;50.38
40838;BME280;29632;49.168;9.848;2023-05-12T09:50:01;96581.94;;;18.97;50.19
40838;BME280;29632;49.168;9.848;2023-05-12T09:52:27;96587.59;;;19.01;50.28
40838;BME280;29632;49.168;9.848;2023-05-12T09:54:53;96577.88;;;19.01;50.43
40838;BME280;29632;49.168;9.848;2023-05-12T09:57:20;96575.84;;;19.03;50.45
40838;BME280;29632;49.168;9.848;2023-05-12T09:59:47;96575.66;;;19.05;50.48
40838;BME280;29632;49.168;9.848;2023-05-12T10:02:13;96572.81;;;19.07;50.43
40838;BME280;29632;49.168;9.848;2023-05-12T10:04:52;96574.03;;;19.11;50.54
40838;BME280;29632;49.168;9.848;2023-05-12T10:07:21;96577.66;;;19.16;50.03
40838;BME280;29632;49.168;9.848;2023-05-12T10:09:48;96575.84;;;19.23;50.08
40838;BME280;29632;49.168;9.848;2023-05-12T10:12:14;96582.97;;;19.30;50.22
40838;BME280;29632;49.168;9.848;2023-05-12T10:14:40;96587.59;;;19.34;49.93
40838;BME280;29632;49.168;9.848;2023-05-12T10:17:07;96576.44;;;19.32;50.11
40838;BME280;29632;49.168;9.848;2023-05-12T10:19:33;96587.00;;;19.32;50.03
40838;BME280;29632;49.168;9.848;2023-05-12T10:21:59;96592.28;;;19.32;49.98
40838;BME280;29632;49.168;9.848;2023-05-12T10:24:26;96586.81;;;19.34;50.19
40838;BME280;29632;49.168;9.848;2023-05-12T10:26:53;96583.16;;;19.35;50.11
40838;BME280;29632;49.168;9.848;2023-05-12T10:29:19;96586.41;;;19.37;50.07
40838;BME280;29632;49.168;9.848;2023-05-12T10:31:46;96589.84;;;19.37;50.16
40838;BME280;29632;49.168;9.848;2023-05-12T10:34:16;96598.81;;;19.36;50.21
40838;BME280;29632;49.168;9.848;2023-05-12T10:36:47;96600.22;;;19.32;50.19
40838;BME280;29632;49.168;9.848;2023-05-12T10:39:14;96598.00;;;19.29;50.19
40838;BME280;29632;49.168;9.848;2023-05-12T10:41:40;96595.56;;;19.28;50.38
40838;BME280;29632;49.168;9.848;2023-05-12T10:44:07;96593.31;;;19.24;50.23
40838;BME280;29632;49.168;9.848;2023-05-12T10:46:34;96598.78;;;19.23;50.43
40838;BME280;29632;49.168;9.848;2023-05-12T10:49:01;96593.91;;;19.20;50.42
40838;BME280;29632;49.168;9.848;2023-05-12T10:54:04;96597.59;;;19.19;50.45
40838;BME280;29632;49.168;9.848;2023-05-12T10:56:41;96595.75;;;19.19;50.52
40838;BME280;29632;49.168;9.848;2023-05-12T11:04:55;96600.03;;;19.14;50.22
40838;BME280;29632;49.168;9.848;2023-05-12T11:07:22;96604.28;;;19.08;50.56
40838;BME280;29632;49.168;9.848;2023-05-12T11:09:49;96603.44;;;19.08;50.55
40838;BME280;29632;49.168;9.848;2023-05-12T11:12:14;96608.53;;;19.09;50.35
40838;BME280;29632;49.168;9.848;2023-05-12T11:14:42;96598.78;;;19.10;50.43
40838;BME280;29632;49.168;9.848;2023-05-12T11:17:08;96605.09;;;19.09;50.50
40838;BME280;29632;49.168;9.848;2023-05-12T11:19:35;96603.44;;;19.08;50.39
40838;BME280;29632;49.168;9.848;2023-05-12T11:22:08;96608.53;;;19.09;50.43
40838;BME280;29632;49.168;9.848;2023-05-12T11:24:38;96611.78;;;19.11;50.56
40838;BME280;29632;49.168;9.848;2023-05-12T11:27:04;96615.84;;;19.14;50.27
40838;BME280;29632;49.168;9.848;2023-05-12T11:29:31;96620.09;;;19.15;50.36
40838;BME280;29632;49.168;9.848;2023-05-12T11:31:57;96619.91;;;19.16;50.47
40838;BME280;29632;49.168;9.848;2023-05-12T11:34:25;96619.09;;;19.16;50.27
40838;BME280;29632;49.168;9.848;2023-05-12T11:36:55;96620.75;;;19.17;50.17
40838;BME280;29632;49.168;9.848;2023-05-12T11:39:25;96617.88;;;19.18;50.14
40838;BME280;29632;49.168;9.848;2023-05-12T11:41:51;96620.50;;;19.18;50.09
40838;BME280;29632;49.168;9.848;2023-05-12T11:44:18;96617.88;;;19.18;49.99
40838;BME280;29632;49.168;9.848;2023-05-12T11:49:21;96614.44;;;19.24;49.85
40838;BME280;29632;49.168;9.848;2023-05-12T11:51:47;96616.69;;;19.28;49.82
40838;BME280;29632;49.168;9.848;2023-05-12T11:54:15;96622.38;;;19.31;49.81
40838;BME280;29632;49.168;9.848;2023-05-12T11:56:52;96624.81;;;19.33;49.94
40838;BME280;29632;49.168;9.848;2023-05-12T11:59:29;96628.25;;;19.33;49.67
40838;BME280;29632;49.168;9.848;2023-05-12T12:01:55;96638.22;;;19.31;49.76
40838;BME280;29632;49.168;9.848;2023-05-12T12:04:34;96636.78;;;19.29;50.00
40838;BME280;29632;49.168;9.848;2023-05-12T12:07:01;96633.53;;;19.27;50.18
40838;BME280;29632;49.168;9.848;2023-05-12T12:09:37;96631.06;;;19.25;50.01
40838;BME280;29632;49.168;9.848;2023-05-12T12:12:09;96632.72;;;19.26;50.05
40838;BME280;29632;49.168;9.848;2023-05-12T12:14:36;96635.97;;;19.28;50.03
40838;BME280;29632;49.168;9.848;2023-05-12T12:17:03;96633.94;;;19.30;49.93
40838;BME280;29632;49.168;9.848;2023-05-12T12:19:29;96641.44;;;19.33;49.90
40838;BME280;29632;49.168;9.848;2023-05-12T12:21:55;96635.78;;;19.36;49.96
40838;BME280;29632;49.168;9.848;2023-05-12T12:24:21;96639.03;;;19.38;49.91
40838;BME280;29632;49.168;9.848;2023-05-12T12:26:47;96629.88;;;19.41;49.94
40838;BME280;29632;49.168;9.848;2023-05-12T12:29:12;96635.75;;;19.43;49.59
40838;BME280;29632;49.168;9.848;2023-05-12T12:31:38;96640.81;;;19.44;49.99
40838;BME280;29632;49.168;9.848;2023-05-12T12:34:04;96644.31;;;19.45;49.67
40838;BME280;29632;49.168;9.848;2023-05-12T12:36:30;96640.44;;;19.48;50.04
40838;BME280;29632;49.168;9.848;2023-05-12T12:39:00;96649.16;;;19.48;49.83
40838;BME280;29632;49.168;9.848;2023-05-12T12:41:26;96648.56;;;19.46;49.93
40838;BME280;29632;49.168;9.848;2023-05-12T12:43:52;96644.50;;;19.43;49.96
40838;BME280;29632;49.168;9.848;2023-05-12T12:46:18;96646.94;;;19.38;49.92
40838;BME280;29632;49.168;9.848;2023-05-12T12:48:44;96650.19;;;19.40;49.89
40838;BME280;29632;49.168;9.848;2023-05-12T12:51:10;96652.22;;;19.38;49.77
40838;BME280;29632;49.168;9.848;2023-05-12T12:53:36;96652.81;;;19.34;49.94
40838;BME280;29632;49.168;9.848;2023-05-12T12:56:02;96653.44;;;19.29;50.04
40838;BME280;29632;49.168;9.848;2023-05-12T12:58:28;96661.97;;;19.24;50.00
40838;BME280;29632;49.168;9.848;2023-05-12T13:00:54;96657.06;;;19.21;50.04
40838;BME280;29632;49.168;9.848;2023-05-12T13:03:20;96655.88;;;19.17;50.08
40838;BME280;29632;49.168;9.848;2023-05-12T13:05:47;96660.34;;;19.17;50.24
40838;BME280;29632;49.168;9.848;2023-05-12T13:08:13;96656.06;;;19.16;50.22